createdAt,value
2019-04-28T00:01:07.803Z,6.53
2019-04-28T00:03:35.034Z,7.70
2019-04-28T00:06:02.305Z,6.47
2019-04-28T00:08:29.598Z,9.88
2019-04-28T00:10:56.800Z,5.50
2019-04-28T00:13:24.338Z,7.25
2019-04-28T00:15:51.862Z,5.03
2019-04-28T00:18:19.452Z,3.80
2019-04-28T00:20:48.296Z,8.18
2019-04-28T00:23:23.270Z,11.35
2019-04-28T00:25:55.441Z,6.20
2019-04-28T00:28:23.006Z,5.97
2019-04-28T00:30:51.714Z,5.70
2019-04-28T00:33:19.209Z,8.28
2019-04-28T00:35:46.630Z,5.08
2019-04-28T00:38:13.920Z,12.63
2019-04-28T00:40:41.418Z,15.18
2019-04-28T00:43:08.696Z,9.38
2019-04-28T00:45:35.897Z,4.58
2019-04-28T00:48:03.464Z,11.90
2019-04-28T00:50:31.613Z,10.28
2019-04-28T00:52:59.315Z,10.10
2019-04-28T00:55:26.620Z,10.43
2019-04-28T00:57:53.817Z,8.50
2019-04-28T01:00:23.196Z,4.43
2019-04-28T01:02:50.968Z,9.93
2019-04-28T01:05:21.242Z,11.70
2019-04-28T01:07:48.173Z,6.95
2019-04-28T01:10:15.473Z,7.07
2019-04-28T01:12:42.752Z,13.98
2019-04-28T01:15:11.699Z,4.60
2019-04-28T01:17:40.601Z,8.10
2019-04-28T01:20:09.818Z,6.67
2019-04-28T01:22:37.144Z,9.78
2019-04-28T01:25:05.738Z,10.08
2019-04-28T01:27:34.653Z,4.62
2019-04-28T01:30:09.196Z,14.18
2019-04-28T01:32:43.522Z,5.47
2019-04-28T01:35:10.787Z,5.47
2019-04-28T01:37:38.165Z,8.43
2019-04-28T01:40:06.568Z,8.92
2019-04-28T01:42:33.831Z,7.33
2019-04-28T01:45:01.033Z,11.45
2019-04-28T01:47:30.402Z,8.20
2019-04-28T01:49:57.312Z,11.78
2019-04-28T01:52:24.596Z,16.62
2019-04-28T01:54:51.901Z,8.33
2019-04-28T01:57:21.297Z,11.22
2019-04-28T01:59:49.882Z,7.45
2019-04-28T02:02:17.150Z,9.90
2019-04-28T02:04:44.417Z,7.10
2019-04-28T02:07:11.616Z,8.30
2019-04-28T02:09:39.642Z,8.70
2019-04-28T02:12:07.293Z,4.45
2019-04-28T02:14:34.490Z,4.47
2019-04-28T02:17:01.720Z,8.88
2019-04-28T02:19:32.686Z,5.70
2019-04-28T02:21:59.585Z,20.27
2019-04-28T02:24:31.204Z,6.65
2019-04-28T02:27:00.641Z,10.43
2019-04-28T02:29:29.887Z,4.47
2019-04-28T02:31:56.974Z,8.15
2019-04-28T02:34:24.261Z,11.15
2019-04-28T02:36:54.006Z,7.67
2019-04-28T02:39:20.915Z,3.20
2019-04-28T02:41:51.159Z,3.67
2019-04-28T02:44:17.460Z,5.97
2019-04-28T02:46:44.697Z,4.60
2019-04-28T02:49:13.537Z,6.22
2019-04-28T02:52:03.044Z,5.40
2019-04-28T02:54:30.476Z,5.60
2019-04-28T02:57:01.053Z,5.05
2019-04-28T02:59:26.853Z,5.37
2019-04-28T03:01:54.149Z,6.05
2019-04-28T03:04:21.355Z,11.12
2019-04-28T03:06:48.657Z,7.17
2019-04-28T03:09:15.854Z,8.30
2019-04-28T03:11:43.614Z,6.72
2019-04-28T03:14:11.204Z,2.47
2019-04-28T03:16:41.050Z,3.47
2019-04-28T03:19:07.829Z,5.62
2019-04-28T03:21:35.110Z,11.93
2019-04-28T03:24:02.483Z,7.58
2019-04-28T03:26:34.145Z,5.87
2019-04-28T03:29:15.111Z,3.33
2019-04-28T03:32:15.586Z,5.65
2019-04-28T03:34:26.257Z,4.78
2019-04-28T03:36:53.527Z,8.00
2019-04-28T03:39:20.764Z,7.53
2019-04-28T03:41:50.229Z,4.40
2019-04-28T03:44:17.271Z,3.83
2019-04-28T03:46:51.201Z,4.85
2019-04-28T03:49:34.264Z,7.37
2019-04-28T03:52:01.997Z,5.47
2019-04-28T03:54:30.344Z,4.00
2019-04-28T03:56:58.046Z,2.22
2019-04-28T03:59:25.943Z,3.75
2019-04-28T04:01:59.408Z,3.47
2019-04-28T04:04:22.621Z,2.35
2019-04-28T04:06:50.891Z,6.75
2019-04-28T04:09:21.578Z,5.25
2019-04-28T04:12:05.246Z,5.22
2019-04-28T04:14:41.203Z,4.30
2019-04-28T04:17:11.346Z,7.62
2019-04-28T04:19:40.666Z,10.98
2019-04-28T04:22:09.989Z,5.70
2019-04-28T04:24:36.681Z,7.50
2019-04-28T04:27:03.953Z,4.28
2019-04-28T04:29:31.267Z,3.85
2019-04-28T04:32:13.909Z,6.20
2019-04-28T04:34:30.111Z,3.58
2019-04-28T04:36:56.577Z,5.12
2019-04-28T04:39:23.885Z,3.50
2019-04-28T04:41:51.147Z,7.40
2019-04-28T04:44:20.864Z,4.70
2019-04-28T04:46:47.606Z,3.00
2019-04-28T04:49:14.806Z,1.37
2019-04-28T04:51:43.845Z,5.97
2019-04-28T04:54:11.395Z,5.33
2019-04-28T04:56:40.174Z,4.08
2019-04-28T04:59:10.057Z,10.15
2019-04-28T05:01:41.477Z,4.17
2019-04-28T05:04:16.800Z,6.65
2019-04-28T05:06:44.007Z,2.90
2019-04-28T05:09:11.280Z,4.67
2019-04-28T05:11:40.017Z,4.95
2019-04-28T05:14:07.698Z,7.85
2019-04-28T05:16:36.466Z,6.35
2019-04-28T05:19:03.940Z,5.67
2019-04-28T05:21:33.352Z,3.90
2019-04-28T05:24:15.679Z,1.65
2019-04-28T05:26:40.918Z,4.95
2019-04-28T05:29:10.053Z,9.50
2019-04-28T05:31:37.491Z,6.28
2019-04-28T05:34:08.108Z,9.28
2019-04-28T05:36:41.166Z,3.33
2019-04-28T05:39:03.444Z,6.58
2019-04-28T05:41:30.743Z,7.08
2019-04-28T05:43:59.562Z,5.40
2019-04-28T05:46:27.059Z,8.90
2019-04-28T05:48:56.307Z,9.83
2019-04-28T05:51:25.233Z,5.80
2019-04-28T05:53:56.801Z,5.83
2019-04-28T05:56:25.668Z,11.12
2019-04-28T05:58:54.501Z,4.08
2019-04-28T06:01:35.715Z,7.35
2019-04-28T06:04:03.253Z,6.08
2019-04-28T06:06:32.116Z,4.80
2019-04-28T06:09:00.960Z,8.95
2019-04-28T06:11:34.987Z,4.72
2019-04-28T06:14:02.267Z,4.90
2019-04-28T06:16:30.412Z,8.08
2019-04-28T06:18:59.823Z,4.35
2019-04-28T06:21:27.356Z,12.75
2019-04-28T06:23:54.580Z,7.53
2019-04-28T06:26:21.874Z,9.03
2019-04-28T06:28:49.236Z,7.33
2019-04-28T06:31:16.437Z,7.70
2019-04-28T06:33:44.589Z,7.55
2019-04-28T06:36:12.220Z,5.78
2019-04-28T06:38:39.820Z,12.07
2019-04-28T06:41:07.025Z,5.80
2019-04-28T06:43:34.265Z,5.17
2019-04-28T06:46:01.477Z,8.15
2019-04-28T06:48:28.748Z,6.17
2019-04-28T06:50:55.988Z,6.85
2019-04-28T06:53:23.262Z,5.08
2019-04-28T06:55:50.461Z,9.80
2019-04-28T06:58:17.896Z,8.38
2019-04-28T07:00:45.181Z,3.80
2019-04-28T07:03:22.616Z,11.57
2019-04-28T07:05:41.596Z,9.50
2019-04-28T07:08:08.868Z,3.33
2019-04-28T07:10:36.082Z,2.15
2019-04-28T07:13:03.701Z,4.08
2019-04-28T07:15:30.986Z,7.78
2019-04-28T07:17:58.255Z,3.02
2019-04-28T07:20:32.961Z,4.72
2019-04-28T07:23:00.166Z,8.50
2019-04-28T07:25:27.518Z,5.15
2019-04-28T07:27:54.942Z,5.97
2019-04-28T07:30:22.576Z,3.70
2019-04-28T07:32:49.807Z,6.00
2019-04-28T07:35:17.761Z,7.87
2019-04-28T07:37:44.956Z,3.98
2019-04-28T07:40:12.234Z,7.75
2019-04-28T07:42:39.680Z,9.68
2019-04-28T07:45:06.884Z,8.40
2019-04-28T07:47:34.151Z,4.53
2019-04-28T07:50:01.636Z,6.42
2019-04-28T07:52:36.263Z,1.92
2019-04-28T07:55:04.728Z,2.25
2019-04-28T07:57:31.960Z,5.78
2019-04-28T07:59:59.232Z,6.15
2019-04-28T08:02:26.506Z,4.78
2019-04-28T08:04:53.828Z,5.47
2019-04-28T08:07:21.174Z,7.95
2019-04-28T08:09:48.521Z,5.90
2019-04-28T08:12:15.772Z,9.40
2019-04-28T08:14:43.553Z,7.92
2019-04-28T08:17:11.009Z,3.10
2019-04-28T08:19:38.689Z,7.65
2019-04-28T08:22:06.048Z,5.20
2019-04-28T08:24:33.457Z,7.80
2019-04-28T08:27:00.767Z,5.47
2019-04-28T08:29:27.964Z,4.47
2019-04-28T08:32:15.337Z,6.37
2019-04-28T08:34:42.787Z,2.22
2019-04-28T08:37:10.426Z,1.55
2019-04-28T08:39:43.137Z,0.68
2019-04-28T08:44:37.254Z,2.85
2019-04-28T08:47:04.777Z,2.60
2019-04-28T08:49:32.168Z,6.45
2019-04-28T08:52:01.409Z,4.05
2019-04-28T08:54:28.859Z,2.72
2019-04-28T08:56:56.213Z,3.90
2019-04-28T08:59:23.437Z,3.47
2019-04-28T09:01:50.668Z,2.83
2019-04-28T09:04:17.969Z,3.90
2019-04-28T09:06:45.584Z,2.80
2019-04-28T09:09:17.294Z,2.85
2019-04-28T09:11:44.560Z,4.20
2019-04-28T09:14:11.833Z,1.92
2019-04-28T09:16:39.218Z,2.37
2019-04-28T09:19:06.412Z,1.47
2019-04-28T09:21:33.610Z,1.87
2019-04-28T09:24:01.074Z,3.10
2019-04-28T09:26:28.498Z,4.97
2019-04-28T09:28:55.764Z,2.87
2019-04-28T09:31:23.169Z,4.17
2019-04-28T09:33:50.412Z,0.82
2019-04-28T09:36:17.722Z,2.05
2019-04-28T09:38:45.031Z,2.45
2019-04-28T09:41:12.296Z,1.07
2019-04-28T09:43:41.292Z,1.90
2019-04-28T09:46:10.261Z,1.87
2019-04-28T09:48:37.502Z,1.98
2019-04-28T09:51:04.770Z,1.65
2019-04-28T09:53:32.116Z,2.20
2019-04-28T09:55:59.620Z,2.83
2019-04-28T09:58:26.816Z,1.55
2019-04-28T10:00:54.341Z,2.72
2019-04-28T10:03:21.618Z,3.37
2019-04-28T10:05:48.913Z,3.33
2019-04-28T10:08:16.385Z,3.92
2019-04-28T10:10:43.647Z,2.90
2019-04-28T10:13:10.926Z,4.33
2019-04-28T10:15:38.609Z,1.05
2019-04-28T10:18:05.809Z,2.60
2019-04-28T10:20:33.005Z,1.15
2019-04-28T10:23:00.367Z,1.15
2019-04-28T10:25:28.081Z,1.75
2019-04-28T10:27:55.492Z,2.22
2019-04-28T10:30:22.765Z,1.90
2019-04-28T10:32:50.036Z,1.77
2019-04-28T10:35:18.180Z,1.40
2019-04-28T10:37:45.765Z,0.90
2019-04-28T10:40:16.809Z,1.60
2019-04-28T10:42:44.105Z,0.53
2019-04-28T10:45:13.022Z,1.25
2019-04-28T10:47:40.259Z,1.17
2019-04-28T10:50:07.533Z,4.08
2019-04-28T10:52:34.763Z,0.62
2019-04-28T10:55:03.903Z,1.37
2019-04-28T10:57:31.208Z,0.40
2019-04-28T10:59:58.420Z,0.50
2019-04-28T11:02:25.683Z,1.40
2019-04-28T11:05:07.430Z,1.52
2019-04-28T11:07:23.545Z,2.12
2019-04-28T11:09:55.504Z,0.90
2019-04-28T11:12:24.691Z,0.30
2019-04-28T11:14:51.957Z,0.20
2019-04-28T11:17:19.971Z,0.30
2019-04-28T11:19:47.244Z,0.15
2019-04-28T11:22:14.523Z,0.30
2019-04-28T11:24:41.921Z,0.70
2019-04-28T11:27:09.628Z,0.72
2019-04-28T11:29:36.907Z,0.45
2019-04-28T11:32:04.397Z,0.20
2019-04-28T11:34:39.264Z,0.35
2019-04-28T11:37:07.107Z,0.30
2019-04-28T11:39:36.177Z,0.57
2019-04-28T11:42:03.676Z,0.20
2019-04-28T11:44:30.877Z,0.42
2019-04-28T11:46:58.370Z,0.10
2019-04-28T11:49:25.956Z,2.00
2019-04-28T11:51:53.529Z,0.40
2019-04-28T11:54:21.013Z,0.93
2019-04-28T11:56:48.213Z,2.25
2019-04-28T11:59:15.489Z,1.72
2019-04-28T12:01:42.977Z,1.12
2019-04-28T12:04:12.333Z,2.60
2019-04-28T12:06:39.528Z,1.27
2019-04-28T12:09:20.604Z,1.15
2019-04-28T12:11:52.650Z,0.40
2019-04-28T12:14:27.531Z,2.15
2019-04-28T12:17:08.706Z,2.12
2019-04-28T12:19:37.766Z,2.00
2019-04-28T12:22:05.037Z,0.55
2019-04-28T12:24:32.237Z,1.20
2019-04-28T12:26:59.733Z,1.37
2019-04-28T12:29:27.009Z,2.10
2019-04-28T12:31:54.316Z,3.12
2019-04-28T12:34:21.798Z,1.87
2019-04-28T12:36:49.074Z,4.12
2019-04-28T12:39:16.336Z,4.00
2019-04-28T12:41:43.699Z,6.37
2019-04-28T12:44:10.901Z,4.53
2019-04-28T12:46:38.175Z,4.00
2019-04-28T12:49:10.006Z,4.55
2019-04-28T12:51:37.207Z,4.65
2019-04-28T12:54:06.112Z,2.98
2019-04-28T12:56:33.478Z,3.98
2019-04-28T12:59:02.387Z,5.00
2019-04-28T13:01:31.302Z,3.50
2019-04-28T13:04:08.816Z,4.70
2019-04-28T13:06:36.017Z,3.25
2019-04-28T13:09:04.364Z,5.37
2019-04-28T13:11:31.605Z,6.60
2019-04-28T13:13:58.872Z,5.97
2019-04-28T13:16:26.072Z,2.35
2019-04-28T13:18:53.340Z,4.30
2019-04-28T13:21:20.540Z,3.12
2019-04-28T13:23:47.735Z,4.20
2019-04-28T13:26:15.002Z,3.12
2019-04-28T13:28:42.257Z,5.58
2019-04-28T13:31:09.912Z,5.25
2019-04-28T13:33:37.260Z,5.35
2019-04-28T13:36:14.691Z,3.10
2019-04-28T13:38:33.454Z,2.87
2019-04-28T13:41:00.773Z,3.30
2019-04-28T13:43:27.976Z,4.62
2019-04-28T13:45:55.393Z,2.80
2019-04-28T13:48:22.850Z,2.80
2019-04-28T13:50:50.118Z,3.70
2019-04-28T13:53:17.385Z,2.37
2019-04-28T13:55:46.281Z,3.60
2019-04-28T13:58:13.707Z,0.50
2019-04-28T14:00:54.840Z,1.95
2019-04-28T14:03:29.665Z,3.30
2019-04-28T14:05:58.548Z,4.33
2019-04-28T14:08:26.031Z,0.70
2019-04-28T14:10:53.302Z,0.72
2019-04-28T14:13:20.689Z,1.32
2019-04-28T14:15:48.536Z,1.98
2019-04-28T14:18:16.089Z,0.75
2019-04-28T14:20:43.404Z,2.02
2019-04-28T14:23:10.605Z,2.87
2019-04-28T14:25:37.908Z,1.10
2019-04-28T14:28:05.312Z,1.75
2019-04-28T14:30:32.542Z,1.65
2019-04-28T14:32:59.894Z,1.75
2019-04-28T14:35:27.376Z,1.90
2019-04-28T14:37:54.589Z,0.78
2019-04-28T14:40:23.484Z,1.30
2019-04-28T14:42:50.827Z,1.35
2019-04-28T14:45:18.099Z,0.28
2019-04-28T14:47:45.324Z,1.10
2019-04-28T14:50:12.569Z,1.00
2019-04-28T14:52:39.831Z,1.98
2019-04-28T14:55:07.105Z,1.55
2019-04-28T14:57:34.561Z,0.30
2019-04-28T15:00:01.775Z,0.70
2019-04-28T15:02:36.246Z,3.12
2019-04-28T15:05:24.433Z,0.55
2019-04-28T15:07:53.429Z,2.00
2019-04-28T15:10:25.074Z,0.40
2019-04-28T15:12:52.808Z,0.30
2019-04-28T15:15:20.300Z,2.03
2019-04-28T15:17:47.684Z,0.70
2019-04-28T15:20:15.044Z,0.30
2019-04-28T15:22:42.549Z,0.30
2019-04-28T15:25:09.749Z,0.55
2019-04-28T15:27:37.129Z,0.57
2019-04-28T15:30:06.278Z,0.30
2019-04-28T15:32:33.626Z,0.20
2019-04-28T15:35:01.338Z,0.37
2019-04-28T15:37:28.871Z,0.72
2019-04-28T15:39:56.140Z,0.40
2019-04-28T15:42:23.608Z,1.25
2019-04-28T15:44:51.209Z,0.20
2019-04-28T15:47:18.433Z,1.17
2019-04-28T15:49:46.176Z,0.40
2019-04-28T15:52:13.776Z,0.20
2019-04-28T15:54:40.976Z,0.20
2019-04-28T15:57:08.204Z,0.75
2019-04-28T15:59:35.411Z,1.22
2019-04-28T16:02:02.708Z,1.15
2019-04-28T16:04:29.905Z,0.53
2019-04-28T16:06:57.495Z,1.70
2019-04-28T16:09:24.756Z,0.30
2019-04-28T16:11:52.235Z,0.20
2019-04-28T16:14:19.445Z,0.20
2019-04-28T16:16:47.143Z,0.20
2019-04-28T16:19:14.417Z,0.20
2019-04-28T16:21:41.653Z,0.20
2019-04-28T16:24:08.913Z,0.20
2019-04-28T16:26:36.223Z,0.47
2019-04-28T16:29:03.856Z,0.25
2019-04-28T16:31:31.086Z,0.30
2019-04-28T16:33:58.285Z,0.85
2019-04-28T16:36:25.692Z,0.35
2019-04-28T16:38:53.008Z,0.20
2019-04-28T16:41:22.237Z,0.75
2019-04-28T16:43:54.676Z,1.10
2019-04-28T16:46:21.963Z,0.10
2019-04-28T16:48:49.246Z,0.50
2019-04-28T16:51:17.083Z,0.90
2019-04-28T16:53:44.584Z,0.80
2019-04-28T16:56:31.340Z,0.30
2019-04-28T16:59:09.606Z,1.55
2019-04-28T17:01:41.629Z,0.78
2019-04-28T17:04:09.092Z,0.62
2019-04-28T17:06:36.591Z,0.50
2019-04-28T17:09:05.765Z,0.60
2019-04-28T17:11:32.969Z,0.53
2019-04-28T17:14:00.685Z,0.28
2019-04-28T17:16:27.956Z,0.20
2019-04-28T17:18:55.151Z,0.20
2019-04-28T17:21:22.604Z,0.35
2019-04-28T17:23:49.799Z,0.75
2019-04-28T17:26:16.999Z,0.98
2019-04-28T17:28:44.533Z,0.30
2019-04-28T17:31:12.504Z,0.93
2019-04-28T17:33:39.853Z,0.40
2019-04-28T17:36:07.185Z,0.30
2019-04-28T17:38:34.736Z,0.68
2019-04-28T17:41:01.963Z,0.28
2019-04-28T17:43:29.701Z,0.80
2019-04-28T17:45:56.896Z,1.65
2019-04-28T17:48:40.757Z,0.60
2019-04-28T17:51:07.955Z,0.50
2019-04-28T17:53:35.161Z,0.25
2019-04-28T17:56:02.403Z,0.10
2019-04-28T17:58:29.608Z,0.20
2019-04-28T18:00:58.529Z,0.20
2019-04-28T18:03:33.390Z,0.17
2019-04-28T18:06:18.386Z,0.15
2019-04-28T18:08:46.096Z,1.45
2019-04-28T18:11:13.304Z,0.10
2019-04-28T18:13:40.818Z,0.20
2019-04-28T18:16:26.532Z,0.10
2019-04-28T18:18:57.912Z,0.10
2019-04-28T18:21:25.263Z,0.10
2019-04-28T18:23:52.838Z,0.05
2019-04-28T18:26:20.112Z,0.10
2019-04-28T18:28:47.390Z,0.10
2019-04-28T18:31:32.868Z,0.10
2019-04-28T18:34:17.932Z,0.10
2019-04-28T18:36:49.707Z,0.00
2019-04-28T18:39:24.676Z,0.10
2019-04-28T18:42:00.224Z,0.10
2019-04-28T18:44:27.496Z,0.10
2019-04-28T18:46:54.801Z,0.10
2019-04-28T18:49:22.265Z,0.10
2019-04-28T18:51:49.748Z,0.10
2019-04-28T18:54:17.465Z,0.10
2019-04-28T18:56:44.807Z,0.10
2019-04-28T18:59:12.009Z,0.13
2019-04-28T19:01:40.929Z,0.20
2019-04-28T19:04:08.558Z,0.10
2019-04-28T19:06:35.828Z,0.10
2019-04-28T19:09:17.264Z,0.10
2019-04-28T19:11:46.172Z,0.10
2019-04-28T19:14:15.113Z,0.15
2019-04-28T19:16:49.670Z,0.10
2019-04-28T19:19:18.579Z,0.10
2019-04-28T19:21:55.994Z,0.20
2019-04-28T19:24:23.513Z,0.10
2019-04-28T19:26:50.713Z,0.23
2019-04-28T19:29:17.978Z,0.10
2019-04-28T19:31:45.174Z,0.10
2019-04-28T19:34:12.481Z,0.10
2019-04-28T19:36:40.072Z,0.10
2019-04-28T19:39:07.354Z,0.10
2019-04-28T19:41:34.940Z,0.10
2019-04-28T19:44:02.425Z,0.15
2019-04-28T19:46:29.645Z,0.10
2019-04-28T19:48:56.849Z,0.10
2019-04-28T19:51:31.498Z,0.10
2019-04-28T19:53:53.037Z,0.10
2019-04-28T19:56:27.556Z,0.10
2019-04-28T19:58:56.896Z,0.25
2019-04-28T20:01:25.809Z,0.03
2019-04-28T20:03:53.004Z,0.20
2019-04-28T20:06:20.637Z,0.10
2019-04-28T20:08:47.833Z,0.10
2019-04-28T20:11:15.123Z,0.10
2019-04-28T20:13:42.505Z,0.10
2019-04-28T20:16:09.721Z,0.10
2019-04-28T20:18:36.984Z,0.10
2019-04-28T20:21:04.301Z,0.10
2019-04-28T20:23:31.496Z,0.10
2019-04-28T20:25:59.053Z,0.10
2019-04-28T20:28:26.612Z,0.23
2019-04-28T20:30:54.173Z,0.20
2019-04-28T20:33:21.468Z,0.10
2019-04-28T20:35:50.306Z,1.65
2019-04-28T20:38:22.746Z,0.20
2019-04-28T20:40:54.229Z,0.10
2019-04-28T20:43:23.177Z,0.20
2019-04-28T20:45:50.470Z,0.20
2019-04-28T20:48:17.670Z,0.20
2019-04-28T20:50:44.895Z,0.10
2019-04-28T20:53:12.438Z,0.20
2019-04-28T20:55:39.739Z,0.20
2019-04-28T20:58:07.012Z,0.30
2019-04-28T21:00:34.239Z,0.10
2019-04-28T21:03:01.620Z,0.55
2019-04-28T21:05:28.988Z,0.33
2019-04-28T21:07:56.333Z,0.50
2019-04-28T21:10:36.813Z,0.10
2019-04-28T21:12:53.000Z,0.10
2019-04-28T21:15:20.288Z,0.30
2019-04-28T21:17:47.948Z,0.10
2019-04-28T21:20:15.476Z,0.27
2019-04-28T21:22:42.756Z,0.13
2019-04-28T21:25:09.988Z,0.13
2019-04-28T21:27:37.188Z,0.20
2019-04-28T21:30:04.384Z,0.33
2019-04-28T21:32:31.805Z,0.13
2019-04-28T21:34:59.078Z,0.95
2019-04-28T21:37:26.649Z,0.10
2019-04-28T21:39:54.310Z,0.20
2019-04-28T21:42:25.959Z,0.40
2019-04-28T21:45:03.837Z,1.05
2019-04-28T21:47:36.973Z,0.35
2019-04-28T21:52:30.880Z,0.30
2019-04-28T21:54:58.406Z,0.20
2019-04-28T21:57:25.718Z,0.20
2019-04-28T21:59:52.996Z,0.20
2019-04-28T22:02:20.362Z,0.10
2019-04-28T22:04:47.564Z,0.10
2019-04-28T22:07:15.165Z,0.13
2019-04-28T22:09:42.448Z,0.20
2019-04-28T22:12:09.725Z,0.17
2019-04-28T22:14:36.924Z,0.30
2019-04-28T22:17:04.225Z,0.15
2019-04-28T22:19:31.481Z,0.20
2019-04-28T22:21:59.105Z,0.10
2019-04-28T22:24:43.332Z,0.10
2019-04-28T22:27:11.928Z,0.30
2019-04-28T22:29:39.300Z,0.30
2019-04-28T22:32:06.570Z,0.20
2019-04-28T22:34:33.846Z,0.20
2019-04-28T22:37:01.148Z,0.10
2019-04-28T22:39:28.404Z,0.10
2019-04-28T22:41:55.636Z,0.10
2019-04-28T22:44:22.912Z,0.20
2019-04-28T22:46:50.537Z,0.13
2019-04-28T22:49:17.732Z,0.20
2019-04-28T22:51:44.957Z,0.30
2019-04-28T22:54:13.793Z,0.20
2019-04-28T22:56:42.874Z,0.25
2019-04-28T22:59:12.120Z,0.10
2019-04-28T23:01:44.028Z,0.47
2019-04-28T23:04:28.368Z,0.20
2019-04-28T23:06:55.636Z,0.20
2019-04-28T23:09:23.131Z,0.28
2019-04-28T23:11:50.419Z,0.40
2019-04-28T23:14:17.719Z,0.30
2019-04-28T23:16:45.304Z,0.30
2019-04-28T23:19:14.174Z,0.20
2019-04-28T23:21:45.932Z,0.20
2019-04-28T23:24:13.272Z,0.13
2019-04-28T23:26:40.487Z,0.13
2019-04-28T23:29:07.780Z,0.20
2019-04-28T23:31:34.981Z,0.10
2019-04-28T23:34:02.289Z,0.10
2019-04-28T23:36:29.595Z,0.15
2019-04-28T23:38:56.996Z,0.10
2019-04-28T23:41:28.936Z,0.53
2019-04-28T23:43:56.165Z,0.40
2019-04-28T23:46:25.003Z,0.40
2019-04-28T23:48:52.305Z,0.30
2019-04-28T23:51:33.193Z,0.25
2019-04-28T23:54:02.059Z,0.40
2019-04-28T23:56:29.343Z,0.20
2019-04-28T23:58:57.109Z,0.53
